Terminal Aerodrome Forecast
Issued by NWS Charleston, WV

Current Version | Previous Version | Graphics & Text | Print | Product List | Glossary On
Versions: 1 2 3 4 5 6 7 8 9 10 11 12 13 14 15 16 17 18 19 20 21 22 23 24 25 26
000
FTUS41 KRLX 042320
TAFEKN
TAF
KEKN 042320Z 0500/0524 31005KT P6SM SCT050
     FM050300 00000KT 4SM BR SCT250
     FM050400 00000KT 1/4SM FG OVC001
     FM051200 00000KT 2SM BR BKN002
     FM051330 00000KT 6SM HZ SCT250
     FM051500 34002KT P6SM BKN100
     FM052000 VRB02KT P6SM BKN050=

USA.gov is the U.S. government's official web portal to all federal, state and local government web resources and services.